sensor_id;sensor_type;location;lat;lon;timestamp;P1;durP1;ratioP1;P2;durP2;ratioP2
58978;SDS011;44763;50.464;30.612;2022-09-30T00:00:29;11.00;;;9.30;;
58978;SDS011;44763;50.464;30.612;2022-09-30T00:02:56;13.98;;;9.83;;
58978;SDS011;44763;50.464;30.612;2022-09-30T00:05:22;9.25;;;8.35;;
58978;SDS011;44763;50.464;30.612;2022-09-30T00:10:15;11.00;;;8.93;;
58978;SDS011;44763;50.464;30.612;2022-09-30T00:12:42;8.98;;;8.18;;
58978;SDS011;44763;50.464;30.612;2022-09-30T00:15:10;9.40;;;8.50;;
58978;SDS011;44763;50.464;30.612;2022-09-30T00:17:36;10.05;;;9.15;;
58978;SDS011;44763;50.464;30.612;2022-09-30T00:20:03;9.98;;;8.05;;
58978;SDS011;44763;50.464;30.612;2022-09-30T00:22:31;9.05;;;7.75;;
58978;SDS011;44763;50.464;30.612;2022-09-30T00:24:57;8.80;;;6.92;;
58978;SDS011;44763;50.464;30.612;2022-09-30T00:27:23;8.63;;;7.70;;
58978;SDS011;44763;50.464;30.612;2022-09-30T00:29:50;7.30;;;6.70;;
58978;SDS011;44763;50.464;30.612;2022-09-30T00:32:16;10.58;;;7.22;;
58978;SDS011;44763;50.464;30.612;2022-09-30T00:34:42;7.10;;;6.40;;
58978;SDS011;44763;50.464;30.612;2022-09-30T00:37:08;10.65;;;6.20;;
58978;SDS011;44763;50.464;30.612;2022-09-30T00:39:36;6.92;;;6.37;;
58978;SDS011;44763;50.464;30.612;2022-09-30T00:42:03;6.58;;;5.97;;
58978;SDS011;44763;50.464;30.612;2022-09-30T00:47:23;8.10;;;6.50;;
58978;SDS011;44763;50.464;30.612;2022-09-30T00:50:05;9.15;;;6.42;;
58978;SDS011;44763;50.464;30.612;2022-09-30T00:52:40;6.62;;;6.03;;
58978;SDS011;44763;50.464;30.612;2022-09-30T00:55:12;7.17;;;5.92;;
58978;SDS011;44763;50.464;30.612;2022-09-30T00:57:40;5.60;;;5.05;;
58978;SDS011;44763;50.464;30.612;2022-09-30T01:00:08;6.25;;;5.65;;
58978;SDS011;44763;50.464;30.612;2022-09-30T01:02:35;6.10;;;5.55;;
58978;SDS011;44763;50.464;30.612;2022-09-30T01:05:01;5.55;;;5.05;;
58978;SDS011;44763;50.464;30.612;2022-09-30T01:07:28;10.93;;;4.67;;
58978;SDS011;44763;50.464;30.612;2022-09-30T01:09:54;6.28;;;4.75;;
58978;SDS011;44763;50.464;30.612;2022-09-30T01:12:24;6.10;;;5.10;;
58978;SDS011;44763;50.464;30.612;2022-09-30T01:14:51;6.60;;;4.55;;
58978;SDS011;44763;50.464;30.612;2022-09-30T01:23:17;6.70;;;4.62;;
58978;SDS011;44763;50.464;30.612;2022-09-30T01:34:51;6.87;;;5.15;;
58978;SDS011;44763;50.464;30.612;2022-09-30T01:41:05;4.10;;;3.75;;
58978;SDS011;44763;50.464;30.612;2022-09-30T01:46:33;5.12;;;3.65;;
58978;SDS011;44763;50.464;30.612;2022-09-30T01:52:19;6.08;;;4.87;;
58978;SDS011;44763;50.464;30.612;2022-09-30T01:58:00;4.75;;;4.42;;
58978;SDS011;44763;50.464;30.612;2022-09-30T02:02:25;4.70;;;3.95;;
58978;SDS011;44763;50.464;30.612;2022-09-30T02:05:00;5.47;;;5.00;;
58978;SDS011;44763;50.464;30.612;2022-09-30T02:07:32;4.87;;;4.47;;
58978;SDS011;44763;50.464;30.612;2022-09-30T02:10:06;4.83;;;4.33;;
58978;SDS011;44763;50.464;30.612;2022-09-30T02:12:52;6.00;;;3.92;;
58978;SDS011;44763;50.464;30.612;2022-09-30T02:15:27;4.05;;;3.85;;
58978;SDS011;44763;50.464;30.612;2022-09-30T02:17:58;5.37;;;4.30;;
58978;SDS011;44763;50.464;30.612;2022-09-30T02:20:30;4.90;;;4.50;;
58978;SDS011;44763;50.464;30.612;2022-09-30T02:25:46;5.90;;;5.40;;
58978;SDS011;44763;50.464;30.612;2022-09-30T02:28:17;4.87;;;4.35;;
58978;SDS011;44763;50.464;30.612;2022-09-30T02:30:50;7.00;;;4.72;;
58978;SDS011;44763;50.464;30.612;2022-09-30T02:33:23;7.22;;;4.08;;
58978;SDS011;44763;50.464;30.612;2022-09-30T02:35:57;5.17;;;4.67;;
58978;SDS011;44763;50.464;30.612;2022-09-30T02:38:33;5.55;;;5.05;;
58978;SDS011;44763;50.464;30.612;2022-09-30T02:41:04;6.60;;;5.30;;
58978;SDS011;44763;50.464;30.612;2022-09-30T02:43:35;5.47;;;4.78;;
58978;SDS011;44763;50.464;30.612;2022-09-30T02:51:44;5.40;;;4.90;;
58978;SDS011;44763;50.464;30.612;2022-09-30T02:54:18;6.62;;;6.00;;
58978;SDS011;44763;50.464;30.612;2022-09-30T03:00:09;6.08;;;5.58;;
58978;SDS011;44763;50.464;30.612;2022-09-30T03:05:02;6.33;;;5.83;;
58978;SDS011;44763;50.464;30.612;2022-09-30T03:07:29;6.33;;;5.78;;
58978;SDS011;44763;50.464;30.612;2022-09-30T03:09:56;7.00;;;5.83;;
58978;SDS011;44763;50.464;30.612;2022-09-30T03:15:29;6.62;;;6.03;;
58978;SDS011;44763;50.464;30.612;2022-09-30T03:26:27;8.40;;;7.60;;
58978;SDS011;44763;50.464;30.612;2022-09-30T03:35:01;7.83;;;6.72;;
58978;SDS011;44763;50.464;30.612;2022-09-30T03:40:28;8.80;;;7.92;;
58978;SDS011;44763;50.464;30.612;2022-09-30T03:45:39;7.03;;;6.42;;
58978;SDS011;44763;50.464;30.612;2022-09-30T03:48:13;10.05;;;8.15;;
58978;SDS011;44763;50.464;30.612;2022-09-30T03:50:41;9.05;;;6.85;;
58978;SDS011;44763;50.464;30.612;2022-09-30T03:53:09;10.55;;;7.30;;
58978;SDS011;44763;50.464;30.612;2022-09-30T03:55:49;11.78;;;8.15;;
58978;SDS011;44763;50.464;30.612;2022-09-30T03:58:15;9.15;;;7.75;;
58978;SDS011;44763;50.464;30.612;2022-09-30T04:00:49;10.65;;;8.98;;
58978;SDS011;44763;50.464;30.612;2022-09-30T04:03:15;11.78;;;8.55;;
58978;SDS011;44763;50.464;30.612;2022-09-30T04:05:43;12.65;;;8.98;;
58978;SDS011;44763;50.464;30.612;2022-09-30T04:08:09;8.78;;;7.87;;
58978;SDS011;44763;50.464;30.612;2022-09-30T04:10:35;11.75;;;10.23;;
58978;SDS011;44763;50.464;30.612;2022-09-30T04:13:01;11.68;;;9.93;;
58978;SDS011;44763;50.464;30.612;2022-09-30T04:17:53;14.33;;;9.70;;
58978;SDS011;44763;50.464;30.612;2022-09-30T04:20:19;10.93;;;9.85;;
58978;SDS011;44763;50.464;30.612;2022-09-30T04:22:45;10.50;;;9.40;;
58978;SDS011;44763;50.464;30.612;2022-09-30T04:25:11;14.73;;;10.25;;
58978;SDS011;44763;50.464;30.612;2022-09-30T04:27:38;14.35;;;10.70;;
58978;SDS011;44763;50.464;30.612;2022-09-30T04:30:04;13.43;;;9.90;;
58978;SDS011;44763;50.464;30.612;2022-09-30T04:32:31;11.63;;;10.55;;
58978;SDS011;44763;50.464;30.612;2022-09-30T04:37:24;12.43;;;11.18;;
58978;SDS011;44763;50.464;30.612;2022-09-30T04:39:50;19.20;;;12.93;;
58978;SDS011;44763;50.464;30.612;2022-09-30T04:42:16;13.35;;;10.45;;
58978;SDS011;44763;50.464;30.612;2022-09-30T04:44:43;13.48;;;10.95;;
58978;SDS011;44763;50.464;30.612;2022-09-30T04:47:09;12.60;;;11.30;;
58978;SDS011;44763;50.464;30.612;2022-09-30T04:49:35;13.45;;;11.93;;
58978;SDS011;44763;50.464;30.612;2022-09-30T04:52:01;14.30;;;12.78;;
58978;SDS011;44763;50.464;30.612;2022-09-30T04:54:27;13.98;;;11.70;;
58978;SDS011;44763;50.464;30.612;2022-09-30T04:56:54;13.90;;;11.00;;
58978;SDS011;44763;50.464;30.612;2022-09-30T04:59:20;14.33;;;12.70;;
58978;SDS011;44763;50.464;30.612;2022-09-30T05:01:46;14.60;;;12.13;;
58978;SDS011;44763;50.464;30.612;2022-09-30T05:04:13;16.30;;;12.43;;
58978;SDS011;44763;50.464;30.612;2022-09-30T05:06:40;13.10;;;11.73;;
58978;SDS011;44763;50.464;30.612;2022-09-30T05:09:06;13.98;;;12.10;;
58978;SDS011;44763;50.464;30.612;2022-09-30T05:11:32;14.55;;;12.88;;
58978;SDS011;44763;50.464;30.612;2022-09-30T05:13:59;16.80;;;12.40;;
58978;SDS011;44763;50.464;30.612;2022-09-30T05:16:25;13.45;;;11.38;;
58978;SDS011;44763;50.464;30.612;2022-09-30T05:18:52;15.80;;;11.97;;
58978;SDS011;44763;50.464;30.612;2022-09-30T05:21:19;15.03;;;11.30;;
58978;SDS011;44763;50.464;30.612;2022-09-30T05:23:45;14.83;;;11.18;;
58978;SDS011;44763;50.464;30.612;2022-09-30T05:26:12;14.10;;;12.07;;
58978;SDS011;44763;50.464;30.612;2022-09-30T05:28:39;13.32;;;11.95;;
58978;SDS011;44763;50.464;30.612;2022-09-30T05:31:07;13.40;;;12.18;;
58978;SDS011;44763;50.464;30.612;2022-09-30T05:33:34;14.47;;;12.13;;
58978;SDS011;44763;50.464;30.612;2022-09-30T05:38:30;14.95;;;11.75;;
58978;SDS011;44763;50.464;30.612;2022-09-30T05:40:56;11.57;;;10.63;;
58978;SDS011;44763;50.464;30.612;2022-09-30T05:43:23;13.98;;;12.73;;
58978;SDS011;44763;50.464;30.612;2022-09-30T05:45:53;16.48;;;11.50;;
58978;SDS011;44763;50.464;30.612;2022-09-30T05:48:21;15.70;;;11.80;;
58978;SDS011;44763;50.464;30.612;2022-09-30T05:50:52;14.20;;;12.03;;
58978;SDS011;44763;50.464;30.612;2022-09-30T05:53:22;26.40;;;21.07;;
58978;SDS011;44763;50.464;30.612;2022-09-30T05:55:49;14.30;;;12.80;;
58978;SDS011;44763;50.464;30.612;2022-09-30T05:58:17;12.45;;;11.35;;
58978;SDS011;44763;50.464;30.612;2022-09-30T06:00:44;13.85;;;12.45;;
58978;SDS011;44763;50.464;30.612;2022-09-30T06:03:15;13.13;;;11.83;;
58978;SDS011;44763;50.464;30.612;2022-09-30T06:05:42;13.08;;;11.80;;
58978;SDS011;44763;50.464;30.612;2022-09-30T06:08:11;12.33;;;11.22;;
58978;SDS011;44763;50.464;30.612;2022-09-30T06:10:40;17.32;;;13.38;;
58978;SDS011;44763;50.464;30.612;2022-09-30T06:13:08;17.73;;;12.40;;
58978;SDS011;44763;50.464;30.612;2022-09-30T06:15:35;14.33;;;12.82;;
58978;SDS011;44763;50.464;30.612;2022-09-30T06:18:04;15.48;;;13.15;;
58978;SDS011;44763;50.464;30.612;2022-09-30T06:20:31;16.55;;;14.45;;
58978;SDS011;44763;50.464;30.612;2022-09-30T06:23:01;20.65;;;13.58;;
58978;SDS011;44763;50.464;30.612;2022-09-30T06:25:29;14.83;;;13.25;;
58978;SDS011;44763;50.464;30.612;2022-09-30T06:27:56;14.15;;;12.37;;
58978;SDS011;44763;50.464;30.612;2022-09-30T06:30:23;16.75;;;13.58;;
58978;SDS011;44763;50.464;30.612;2022-09-30T06:32:51;15.23;;;12.90;;
58978;SDS011;44763;50.464;30.612;2022-09-30T06:35:21;15.25;;;13.50;;
58978;SDS011;44763;50.464;30.612;2022-09-30T06:37:49;16.60;;;14.15;;
58978;SDS011;44763;50.464;30.612;2022-09-30T06:40:17;17.12;;;15.23;;
58978;SDS011;44763;50.464;30.612;2022-09-30T06:42:43;17.10;;;14.68;;
58978;SDS011;44763;50.464;30.612;2022-09-30T06:45:10;15.08;;;13.00;;
58978;SDS011;44763;50.464;30.612;2022-09-30T06:47:37;16.80;;;14.28;;
58978;SDS011;44763;50.464;30.612;2022-09-30T06:50:04;17.75;;;15.98;;
58978;SDS011;44763;50.464;30.612;2022-09-30T06:52:31;17.32;;;14.90;;
58978;SDS011;44763;50.464;30.612;2022-09-30T06:54:57;16.90;;;14.98;;
58978;SDS011;44763;50.464;30.612;2022-09-30T06:57:23;16.32;;;13.50;;
58978;SDS011;44763;50.464;30.612;2022-09-30T06:59:52;18.67;;;13.03;;
58978;SDS011;44763;50.464;30.612;2022-09-30T07:02:19;18.92;;;15.25;;
58978;SDS011;44763;50.464;30.612;2022-09-30T07:04:47;14.95;;;13.45;;
58978;SDS011;44763;50.464;30.612;2022-09-30T07:07:18;15.00;;;13.50;;
58978;SDS011;44763;50.464;30.612;2022-09-30T07:09:47;16.10;;;14.40;;
58978;SDS011;44763;50.464;30.612;2022-09-30T07:12:13;15.88;;;14.13;;
58978;SDS011;44763;50.464;30.612;2022-09-30T07:17:05;17.30;;;15.23;;
58978;SDS011;44763;50.464;30.612;2022-09-30T07:19:33;19.05;;;14.53;;
58978;SDS011;44763;50.464;30.612;2022-09-30T07:22:00;18.07;;;15.68;;
58978;SDS011;44763;50.464;30.612;2022-09-30T07:24:45;17.32;;;15.63;;
58978;SDS011;44763;50.464;30.612;2022-09-30T07:29:38;19.70;;;15.93;;
58978;SDS011;44763;50.464;30.612;2022-09-30T07:32:06;17.25;;;15.45;;
58978;SDS011;44763;50.464;30.612;2022-09-30T07:34:35;20.52;;;16.17;;
58978;SDS011;44763;50.464;30.612;2022-09-30T07:37:03;17.75;;;14.85;;
58978;SDS011;44763;50.464;30.612;2022-09-30T07:39:29;23.02;;;19.07;;
58978;SDS011;44763;50.464;30.612;2022-09-30T07:41:56;18.85;;;16.50;;
58978;SDS011;44763;50.464;30.612;2022-09-30T07:44:22;18.10;;;16.23;;
58978;SDS011;44763;50.464;30.612;2022-09-30T07:46:50;19.15;;;17.12;;
58978;SDS011;44763;50.464;30.612;2022-09-30T07:49:17;18.30;;;16.50;;
58978;SDS011;44763;50.464;30.612;2022-09-30T07:51:48;22.67;;;20.12;;
58978;SDS011;44763;50.464;30.612;2022-09-30T07:54:18;20.12;;;17.80;;
58978;SDS011;44763;50.464;30.612;2022-09-30T07:56:49;19.30;;;17.40;;
58978;SDS011;44763;50.464;30.612;2022-09-30T07:59:17;20.10;;;17.95;;
58978;SDS011;44763;50.464;30.612;2022-09-30T08:01:45;19.92;;;17.92;;
58978;SDS011;44763;50.464;30.612;2022-09-30T08:04:12;19.85;;;17.60;;
58978;SDS011;44763;50.464;30.612;2022-09-30T08:06:42;20.32;;;18.30;;
58978;SDS011;44763;50.464;30.612;2022-09-30T08:09:12;19.52;;;17.50;;
58978;SDS011;44763;50.464;30.612;2022-09-30T08:11:40;20.45;;;18.40;;
58978;SDS011;44763;50.464;30.612;2022-09-30T08:14:10;22.13;;;19.75;;
58978;SDS011;44763;50.464;30.612;2022-09-30T08:16:41;21.48;;;19.37;;
58978;SDS011;44763;50.464;30.612;2022-09-30T08:19:08;21.90;;;19.60;;
58978;SDS011;44763;50.464;30.612;2022-09-30T08:21:42;20.75;;;18.82;;
58978;SDS011;44763;50.464;30.612;2022-09-30T08:24:10;20.37;;;18.17;;
58978;SDS011;44763;50.464;30.612;2022-09-30T08:26:37;21.40;;;19.20;;
58978;SDS011;44763;50.464;30.612;2022-09-30T08:29:04;22.60;;;19.05;;
58978;SDS011;44763;50.464;30.612;2022-09-30T08:31:31;19.57;;;17.57;;
58978;SDS011;44763;50.464;30.612;2022-09-30T08:33:58;21.05;;;18.75;;
58978;SDS011;44763;50.464;30.612;2022-09-30T08:36:25;20.50;;;18.32;;
58978;SDS011;44763;50.464;30.612;2022-09-30T08:38:52;20.77;;;18.62;;
58978;SDS011;44763;50.464;30.612;2022-09-30T08:41:34;20.60;;;18.30;;
58978;SDS011;44763;50.464;30.612;2022-09-30T08:44:13;20.80;;;18.73;;
58978;SDS011;44763;50.464;30.612;2022-09-30T08:47:29;17.45;;;15.50;;
58978;SDS011;44763;50.464;30.612;2022-09-30T08:52:48;21.20;;;19.10;;
58978;SDS011;44763;50.464;30.612;2022-09-30T08:55:23;20.90;;;18.92;;
58978;SDS011;44763;50.464;30.612;2022-09-30T08:57:52;20.23;;;18.23;;
58978;SDS011;44763;50.464;30.612;2022-09-30T09:00:21;23.90;;;19.55;;
58978;SDS011;44763;50.464;30.612;2022-09-30T09:02:57;18.30;;;16.60;;
58978;SDS011;44763;50.464;30.612;2022-09-30T09:11:05;21.27;;;19.20;;
58978;SDS011;44763;50.464;30.612;2022-09-30T09:19:19;19.42;;;17.65;;
58978;SDS011;44763;50.464;30.612;2022-09-30T09:21:54;21.48;;;18.07;;
58978;SDS011;44763;50.464;30.612;2022-09-30T09:27:15;18.42;;;16.67;;
58978;SDS011;44763;50.464;30.612;2022-09-30T09:30:09;22.98;;;18.70;;
58978;SDS011;44763;50.464;30.612;2022-09-30T09:32:38;22.07;;;19.82;;
58978;SDS011;44763;50.464;30.612;2022-09-30T09:35:12;21.00;;;18.92;;
58978;SDS011;44763;50.464;30.612;2022-09-30T09:54:52;21.75;;;19.65;;
58978;SDS011;44763;50.464;30.612;2022-09-30T09:57:21;20.52;;;18.23;;
58978;SDS011;44763;50.464;30.612;2022-09-30T09:59:56;20.75;;;18.65;;
58978;SDS011;44763;50.464;30.612;2022-09-30T10:02:30;19.62;;;17.80;;
58978;SDS011;44763;50.464;30.612;2022-09-30T10:04:57;20.92;;;18.92;;
58978;SDS011;44763;50.464;30.612;2022-09-30T10:07:30;20.92;;;18.87;;
58978;SDS011;44763;50.464;30.612;2022-09-30T10:12:42;23.67;;;20.90;;
58978;SDS011;44763;50.464;30.612;2022-09-30T10:15:23;21.42;;;19.20;;
58978;SDS011;44763;50.464;30.612;2022-09-30T10:17:52;18.42;;;16.82;;
58978;SDS011;44763;50.464;30.612;2022-09-30T10:20:29;19.17;;;17.42;;
58978;SDS011;44763;50.464;30.612;2022-09-30T10:23:01;18.05;;;16.20;;
58978;SDS011;44763;50.464;30.612;2022-09-30T10:25:56;21.12;;;18.48;;
58978;SDS011;44763;50.464;30.612;2022-09-30T10:28:30;21.57;;;18.05;;
58978;SDS011;44763;50.464;30.612;2022-09-30T10:31:02;24.45;;;18.82;;
58978;SDS011;44763;50.464;30.612;2022-09-30T10:33:34;17.85;;;15.90;;
58978;SDS011;44763;50.464;30.612;2022-09-30T10:36:09;19.87;;;17.45;;
58978;SDS011;44763;50.464;30.612;2022-09-30T10:38:47;18.92;;;17.12;;
58978;SDS011;44763;50.464;30.612;2022-09-30T10:41:27;18.20;;;16.05;;
58978;SDS011;44763;50.464;30.612;2022-09-30T10:44:00;18.62;;;16.70;;
58978;SDS011;44763;50.464;30.612;2022-09-30T10:46:31;18.52;;;16.90;;
58978;SDS011;44763;50.464;30.612;2022-09-30T10:49:06;20.57;;;18.17;;
58978;SDS011;44763;50.464;30.612;2022-09-30T10:51:52;21.70;;;16.97;;
58978;SDS011;44763;50.464;30.612;2022-09-30T10:54:56;23.12;;;16.42;;
58978;SDS011;44763;50.464;30.612;2022-09-30T10:57:19;18.20;;;16.45;;
58978;SDS011;44763;50.464;30.612;2022-09-30T10:59:57;20.82;;;18.55;;
58978;SDS011;44763;50.464;30.612;2022-09-30T11:02:38;21.50;;;18.48;;
58978;SDS011;44763;50.464;30.612;2022-09-30T11:05:26;18.75;;;16.65;;
58978;SDS011;44763;50.464;30.612;2022-09-30T11:08:14;20.37;;;17.55;;
58978;SDS011;44763;50.464;30.612;2022-09-30T11:11:02;22.62;;;18.50;;
58978;SDS011;44763;50.464;30.612;2022-09-30T11:17:14;20.88;;;18.90;;
58978;SDS011;44763;50.464;30.612;2022-09-30T11:42:46;27.55;;;20.48;;
58978;SDS011;44763;50.464;30.612;2022-09-30T11:51:30;20.05;;;17.92;;
58978;SDS011;44763;50.464;30.612;2022-09-30T11:54:20;22.27;;;16.82;;
58978;SDS011;44763;50.464;30.612;2022-09-30T11:57:12;22.50;;;16.27;;
58978;SDS011;44763;50.464;30.612;2022-09-30T12:13:36;20.27;;;16.65;;
58978;SDS011;44763;50.464;30.612;2022-09-30T12:16:13;19.30;;;17.40;;
58978;SDS011;44763;50.464;30.612;2022-09-30T12:18:46;19.35;;;16.87;;
58978;SDS011;44763;50.464;30.612;2022-09-30T12:23:56;24.80;;;17.50;;
58978;SDS011;44763;50.464;30.612;2022-09-30T12:26:37;26.48;;;18.70;;
58978;SDS011;44763;50.464;30.612;2022-09-30T12:29:07;16.42;;;14.80;;
58978;SDS011;44763;50.464;30.612;2022-09-30T12:51:30;16.15;;;14.47;;
58978;SDS011;44763;50.464;30.612;2022-09-30T12:54:09;16.07;;;13.78;;
58978;SDS011;44763;50.464;30.612;2022-09-30T12:56:35;15.13;;;13.62;;
58978;SDS011;44763;50.464;30.612;2022-09-30T12:59:05;17.65;;;13.18;;
58978;SDS011;44763;50.464;30.612;2022-09-30T13:01:35;13.68;;;11.48;;
58978;SDS011;44763;50.464;30.612;2022-09-30T13:09:20;13.95;;;12.65;;
58978;SDS011;44763;50.464;30.612;2022-09-30T13:14:35;14.85;;;13.28;;
58978;SDS011;44763;50.464;30.612;2022-09-30T13:32:47;14.45;;;11.93;;
58978;SDS011;44763;50.464;30.612;2022-09-30T13:38:16;18.17;;;14.03;;
58978;SDS011;44763;50.464;30.612;2022-09-30T13:40:46;14.90;;;13.30;;
58978;SDS011;44763;50.464;30.612;2022-09-30T13:43:19;14.33;;;12.80;;
58978;SDS011;44763;50.464;30.612;2022-09-30T13:46:16;16.62;;;12.78;;
58978;SDS011;44763;50.464;30.612;2022-09-30T13:48:50;20.90;;;14.93;;
58978;SDS011;44763;50.464;30.612;2022-09-30T13:51:23;14.98;;;13.48;;
58978;SDS011;44763;50.464;30.612;2022-09-30T13:53:53;15.45;;;12.63;;
58978;SDS011;44763;50.464;30.612;2022-09-30T13:56:24;15.23;;;12.93;;
58978;SDS011;44763;50.464;30.612;2022-09-30T14:07:13;14.68;;;12.98;;
58978;SDS011;44763;50.464;30.612;2022-09-30T14:10:19;13.30;;;11.97;;
58978;SDS011;44763;50.464;30.612;2022-09-30T14:22:08;13.85;;;12.45;;
58978;SDS011;44763;50.464;30.612;2022-09-30T14:24:36;13.83;;;12.53;;
58978;SDS011;44763;50.464;30.612;2022-09-30T14:32:55;14.75;;;13.35;;
58978;SDS011;44763;50.464;30.612;2022-09-30T14:35:17;16.32;;;14.00;;
58978;SDS011;44763;50.464;30.612;2022-09-30T14:38:05;14.13;;;12.68;;
58978;SDS011;44763;50.464;30.612;2022-09-30T14:40:36;15.00;;;13.55;;
58978;SDS011;44763;50.464;30.612;2022-09-30T14:43:06;15.15;;;13.65;;
58978;SDS011;44763;50.464;30.612;2022-09-30T14:45:38;16.02;;;13.35;;
58978;SDS011;44763;50.464;30.612;2022-09-30T14:48:09;15.40;;;13.10;;
58978;SDS011;44763;50.464;30.612;2022-09-30T14:50:59;14.50;;;13.08;;
58978;SDS011;44763;50.464;30.612;2022-09-30T14:53:41;14.87;;;13.43;;
58978;SDS011;44763;50.464;30.612;2022-09-30T14:56:26;15.88;;;14.28;;
58978;SDS011;44763;50.464;30.612;2022-09-30T14:58:58;17.27;;;13.65;;
58978;SDS011;44763;50.464;30.612;2022-09-30T15:01:29;15.72;;;14.23;;
58978;SDS011;44763;50.464;30.612;2022-09-30T15:04:01;15.10;;;13.85;;
58978;SDS011;44763;50.464;30.612;2022-09-30T15:06:44;18.25;;;14.90;;
58978;SDS011;44763;50.464;30.612;2022-09-30T15:09:19;16.17;;;14.75;;
58978;SDS011;44763;50.464;30.612;2022-09-30T15:12:12;15.68;;;14.18;;
58978;SDS011;44763;50.464;30.612;2022-09-30T15:14:47;18.75;;;14.53;;
58978;SDS011;44763;50.464;30.612;2022-09-30T15:17:24;16.50;;;14.87;;
58978;SDS011;44763;50.464;30.612;2022-09-30T15:19:58;17.12;;;15.40;;
58978;SDS011;44763;50.464;30.612;2022-09-30T15:22:25;19.07;;;15.85;;
58978;SDS011;44763;50.464;30.612;2022-09-30T15:24:53;18.17;;;15.83;;
58978;SDS011;44763;50.464;30.612;2022-09-30T15:30:01;19.80;;;17.77;;
58978;SDS011;44763;50.464;30.612;2022-09-30T15:32:42;21.07;;;19.05;;
58978;SDS011;44763;50.464;30.612;2022-09-30T15:35:11;19.90;;;18.12;;
58978;SDS011;44763;50.464;30.612;2022-09-30T15:37:41;22.22;;;19.23;;
58978;SDS011;44763;50.464;30.612;2022-09-30T15:40:15;23.18;;;18.12;;
58978;SDS011;44763;50.464;30.612;2022-09-30T15:43:08;21.25;;;18.87;;
58978;SDS011;44763;50.464;30.612;2022-09-30T15:45:44;19.67;;;17.57;;
58978;SDS011;44763;50.464;30.612;2022-09-30T15:51:21;21.52;;;18.27;;
58978;SDS011;44763;50.464;30.612;2022-09-30T15:53:49;22.95;;;18.80;;
58978;SDS011;44763;50.464;30.612;2022-09-30T16:01:36;20.57;;;18.55;;
58978;SDS011;44763;50.464;30.612;2022-09-30T16:06:47;20.80;;;18.80;;
58978;SDS011;44763;50.464;30.612;2022-09-30T16:09:35;19.98;;;17.92;;
58978;SDS011;44763;50.464;30.612;2022-09-30T16:12:03;21.82;;;19.45;;
58978;SDS011;44763;50.464;30.612;2022-09-30T16:17:18;27.48;;;21.70;;
58978;SDS011;44763;50.464;30.612;2022-09-30T16:20:22;21.25;;;19.25;;
58978;SDS011;44763;50.464;30.612;2022-09-30T16:27:55;21.70;;;19.20;;
58978;SDS011;44763;50.464;30.612;2022-09-30T16:30:25;22.82;;;20.50;;
58978;SDS011;44763;50.464;30.612;2022-09-30T16:32:54;26.07;;;19.40;;
58978;SDS011;44763;50.464;30.612;2022-09-30T16:35:23;21.95;;;19.45;;
58978;SDS011;44763;50.464;30.612;2022-09-30T16:37:58;22.90;;;20.62;;
58978;SDS011;44763;50.464;30.612;2022-09-30T16:40:28;21.37;;;17.92;;
58978;SDS011;44763;50.464;30.612;2022-09-30T16:42:56;20.92;;;18.70;;
58978;SDS011;44763;50.464;30.612;2022-09-30T16:45:26;25.97;;;18.92;;
58978;SDS011;44763;50.464;30.612;2022-09-30T16:47:53;22.07;;;19.77;;
58978;SDS011;44763;50.464;30.612;2022-09-30T16:50:27;24.52;;;18.77;;
58978;SDS011;44763;50.464;30.612;2022-09-30T16:53:04;23.13;;;20.57;;
58978;SDS011;44763;50.464;30.612;2022-09-30T16:55:31;21.20;;;19.05;;
58978;SDS011;44763;50.464;30.612;2022-09-30T16:57:57;22.02;;;19.73;;
58978;SDS011;44763;50.464;30.612;2022-09-30T17:00:25;20.77;;;18.73;;
58978;SDS011;44763;50.464;30.612;2022-09-30T17:02:53;24.30;;;21.93;;
58978;SDS011;44763;50.464;30.612;2022-09-30T17:05:21;25.85;;;21.52;;
58978;SDS011;44763;50.464;30.612;2022-09-30T17:07:50;24.00;;;21.35;;
58978;SDS011;44763;50.464;30.612;2022-09-30T17:10:20;23.75;;;21.07;;
58978;SDS011;44763;50.464;30.612;2022-09-30T17:12:55;23.95;;;20.45;;
58978;SDS011;44763;50.464;30.612;2022-09-30T17:15:29;22.20;;;19.82;;
58978;SDS011;44763;50.464;30.612;2022-09-30T17:17:58;21.65;;;19.42;;
58978;SDS011;44763;50.464;30.612;2022-09-30T17:20:28;25.57;;;20.92;;
58978;SDS011;44763;50.464;30.612;2022-09-30T17:22:55;24.98;;;21.17;;
58978;SDS011;44763;50.464;30.612;2022-09-30T17:27:47;26.23;;;20.10;;
58978;SDS011;44763;50.464;30.612;2022-09-30T17:30:17;24.82;;;19.20;;
58978;SDS011;44763;50.464;30.612;2022-09-30T17:32:44;22.77;;;20.25;;
58978;SDS011;44763;50.464;30.612;2022-09-30T17:35:11;23.42;;;21.17;;
58978;SDS011;44763;50.464;30.612;2022-09-30T17:37:38;25.30;;;22.37;;
58978;SDS011;44763;50.464;30.612;2022-09-30T17:42:34;26.23;;;21.97;;
58978;SDS011;44763;50.464;30.612;2022-09-30T17:45:18;24.47;;;21.97;;
58978;SDS011;44763;50.464;30.612;2022-09-30T17:47:44;22.75;;;20.55;;
58978;SDS011;44763;50.464;30.612;2022-09-30T17:50:10;25.30;;;22.55;;
58978;SDS011;44763;50.464;30.612;2022-09-30T17:52:39;25.85;;;22.45;;
58978;SDS011;44763;50.464;30.612;2022-09-30T17:55:06;25.90;;;21.87;;
58978;SDS011;44763;50.464;30.612;2022-09-30T17:57:37;26.37;;;23.70;;
58978;SDS011;44763;50.464;30.612;2022-09-30T18:00:04;23.87;;;21.50;;
58978;SDS011;44763;50.464;30.612;2022-09-30T18:02:33;29.20;;;23.50;;
58978;SDS011;44763;50.464;30.612;2022-09-30T18:07:26;36.70;;;24.40;;
58978;SDS011;44763;50.464;30.612;2022-09-30T18:09:55;27.70;;;24.63;;
58978;SDS011;44763;50.464;30.612;2022-09-30T18:12:24;27.48;;;24.45;;
58978;SDS011;44763;50.464;30.612;2022-09-30T18:14:50;28.23;;;23.30;;
58978;SDS011;44763;50.464;30.612;2022-09-30T18:17:18;26.40;;;23.50;;
58978;SDS011;44763;50.464;30.612;2022-09-30T18:19:45;27.35;;;22.35;;
58978;SDS011;44763;50.464;30.612;2022-09-30T18:22:19;28.05;;;23.18;;
58978;SDS011;44763;50.464;30.612;2022-09-30T18:24:46;29.55;;;21.93;;
58978;SDS011;44763;50.464;30.612;2022-09-30T18:27:31;24.90;;;22.37;;
58978;SDS011;44763;50.464;30.612;2022-09-30T18:29:59;26.77;;;22.50;;
58978;SDS011;44763;50.464;30.612;2022-09-30T18:32:29;24.15;;;21.42;;
58978;SDS011;44763;50.464;30.612;2022-09-30T18:35:00;26.77;;;23.07;;
58978;SDS011;44763;50.464;30.612;2022-09-30T18:37:27;30.43;;;24.40;;
58978;SDS011;44763;50.464;30.612;2022-09-30T18:39:56;26.05;;;22.87;;
58978;SDS011;44763;50.464;30.612;2022-09-30T18:42:22;28.38;;;23.57;;
58978;SDS011;44763;50.464;30.612;2022-09-30T18:44:48;30.40;;;25.40;;
58978;SDS011;44763;50.464;30.612;2022-09-30T18:47:16;31.42;;;24.27;;
58978;SDS011;44763;50.464;30.612;2022-09-30T18:49:44;24.18;;;21.52;;
58978;SDS011;44763;50.464;30.612;2022-09-30T18:54:38;25.48;;;22.75;;
58978;SDS011;44763;50.464;30.612;2022-09-30T18:57:04;24.70;;;22.05;;
58978;SDS011;44763;50.464;30.612;2022-09-30T18:59:30;27.05;;;23.40;;
58978;SDS011;44763;50.464;30.612;2022-09-30T19:01:58;27.42;;;23.55;;
58978;SDS011;44763;50.464;30.612;2022-09-30T19:04:27;25.92;;;23.27;;
58978;SDS011;44763;50.464;30.612;2022-09-30T19:06:54;24.47;;;22.05;;